Time;durP1;ratioP1;P1;durP2;ratioP2;P2;SDS_P1;SDS_P2;PMS_P1;PMS_P2;Temp;Humidity;BMP_temperature;BMP_pressure;BME280_temperature;BME280_humidity;BME280_pressure;Samples;Min_cycle;Max_cycle;Signal;HPM_P1;HPM_P2
2022/03/26 00:01:25;;;;;;;21.50;11.13;;;9.10;79.70;;;;;;4922992;29;20036;-75
2022/03/26 00:03:51;;;;;;;27.23;13.35;;;9.00;80.00;;;;;;4924395;29;20051;-73
2022/03/26 00:06:18;;;;;;;23.15;13.50;;;9.00;80.60;;;;;;4940296;29;20030;-75
2022/03/26 00:08:44;;;;;;;22.00;11.27;;;9.00;80.60;;;;;;4928042;29;20391;-73
2022/03/26 00:11:11;;;;;;;19.52;10.20;;;9.10;80.80;;;;;;4915861;29;20093;-75
2022/03/26 00:13:37;;;;;;;40.22;18.55;;;9.10;80.60;;;;;;4915812;29;20046;-75
2022/03/26 00:16:05;;;;;;;31.13;16.25;;;9.00;80.50;;;;;;4945189;29;20043;-75
2022/03/26 00:18:31;;;;;;;22.20;12.20;;;9.00;80.90;;;;;;4923803;29;20030;-76
2022/03/26 00:20:58;;;;;;;25.73;12.55;;;9.00;80.80;;;;;;4894947;29;20490;-75
2022/03/26 00:23:24;;;;;;;25.48;11.20;;;8.90;80.90;;;;;;4913542;29;20043;-76
2022/03/26 00:25:51;;;;;;;26.85;13.43;;;8.90;80.90;;;;;;4890849;29;20357;-75
2022/03/26 00:28:20;;;;;;;28.40;12.25;;;8.80;81.60;;;;;;4934998;29;20031;-75
2022/03/26 00:30:47;;;;;;;20.83;10.05;;;8.80;81.80;;;;;;4935320;29;20506;-75
2022/03/26 00:33:13;;;;;;;21.25;11.25;;;8.90;81.70;;;;;;4935724;29;20046;-75
2022/03/26 00:35:39;;;;;;;27.15;12.43;;;8.80;81.90;;;;;;4928761;29;20047;-76
2022/03/26 00:38:06;;;;;;;24.27;12.38;;;8.80;82.60;;;;;;4933878;29;20036;-74
2022/03/26 00:40:32;;;;;;;23.70;12.60;;;8.80;82.60;;;;;;4933025;29;20044;-75
2022/03/26 00:42:59;;;;;;;25.33;13.15;;;8.70;82.50;;;;;;4922100;29;20063;-75
2022/03/26 00:45:27;;;;;;;22.05;11.15;;;8.70;82.80;;;;;;4907275;29;20430;-75
2022/03/26 00:47:55;;;;;;;23.90;13.25;;;8.70;82.70;;;;;;4914432;29;20062;-76
2022/03/26 00:50:22;;;;;;;21.38;13.25;;;8.60;83.10;;;;;;4937655;29;20031;-76
2022/03/26 00:52:49;;;;;;;22.75;11.93;;;8.60;83.00;;;;;;4923114;29;20028;-77
2022/03/26 00:55:15;;;;;;;25.48;13.32;;;8.60;83.40;;;;;;4941741;29;20510;-75
2022/03/26 00:57:42;;;;;;;25.08;14.07;;;8.50;83.70;;;;;;4932324;29;20391;-76
2022/03/26 01:00:10;;;;;;;20.60;12.52;;;8.50;83.90;;;;;;4932088;29;20109;-76
2022/03/26 01:02:36;;;;;;;25.13;12.80;;;8.50;83.90;;;;;;4931348;29;21254;-76
2022/03/26 01:05:04;;;;;;;21.67;11.75;;;8.40;84.00;;;;;;4923484;29;20050;-76
2022/03/26 01:07:31;;;;;;;26.88;13.15;;;8.40;84.20;;;;;;4928871;29;20050;-76
2022/03/26 01:09:58;;;;;;;23.27;12.10;;;8.30;84.50;;;;;;4910702;29;20039;-75
2022/03/26 01:12:25;;;;;;;29.70;13.90;;;8.30;84.50;;;;;;4923115;29;20051;-75
2022/03/26 01:14:53;;;;;;;25.00;12.85;;;8.30;85.20;;;;;;4908188;29;20062;-75
2022/03/26 01:17:19;;;;;;;20.52;11.38;;;8.20;85.30;;;;;;4936238;29;20038;-75
2022/03/26 01:19:46;;;;;;;29.80;14.82;;;8.30;85.40;;;;;;4934499;29;20499;-79
2022/03/26 01:22:15;;;;;;;23.98;13.25;;;8.20;85.70;;;;;;4913106;29;20043;-78
2022/03/26 01:24:41;;;;;;;26.48;13.85;;;8.20;85.90;;;;;;4921095;29;20105;-78
2022/03/26 01:27:08;;;;;;;20.25;11.75;;;8.20;86.00;;;;;;4895439;29;20035;-77
2022/03/26 01:29:38;;;;;;;19.33;11.50;;;8.10;85.80;;;;;;4935093;29;20047;-79
2022/03/26 01:32:07;;;;;;;26.88;13.23;;;8.10;85.90;;;;;;4927444;29;20031;-79
2022/03/26 01:34:36;;;;;;;27.65;13.95;;;8.10;86.50;;;;;;4891777;29;20048;-79
2022/03/26 01:37:07;;;;;;;29.10;15.02;;;8.10;86.70;;;;;;4917152;29;20047;-79
2022/03/26 01:39:36;;;;;;;29.25;14.48;;;8.10;86.70;;;;;;4931869;29;20044;-79
2022/03/26 01:42:32;;;;;;;26.30;14.23;;;8.10;86.80;;;;;;4919469;29;20048;-79
2022/03/26 01:44:58;;;;;;;25.25;12.65;;;8.10;86.80;;;;;;4923917;29;20043;-79
2022/03/26 01:47:26;;;;;;;21.30;10.70;;;8.10;86.80;;;;;;4933031;29;20035;-79
2022/03/26 01:49:53;;;;;;;29.00;13.40;;;8.00;86.60;;;;;;4920822;29;20039;-79
2022/03/26 01:52:25;;;;;;;29.83;14.40;;;8.00;87.50;;;;;;4923998;29;20046;-79
2022/03/26 01:55:06;;;;;;;25.77;13.90;;;8.00;87.50;;;;;;4778733;28;4646224;-79
2022/03/26 01:57:33;;;;;;;30.23;15.20;;;8.00;87.60;;;;;;4954362;28;20032;-82
2022/03/26 02:00:08;;;;;;;23.27;14.02;;;8.00;87.90;;;;;;4938616;29;20051;-84
2022/03/26 02:02:43;;;;;;;21.38;12.43;;;7.90;87.70;;;;;;4945398;28;20038;-83
2022/03/26 02:05:18;;;;;;;25.60;13.55;;;7.90;87.60;;;;;;4957508;28;20035;-84
2022/03/26 02:07:50;;;;;;;31.90;17.48;;;7.90;87.80;;;;;;4938077;29;20027;-84
2022/03/26 02:10:19;;;;;;;27.73;14.85;;;7.90;88.70;;;;;;4931777;29;20031;-83
2022/03/26 02:12:47;;;;;;;26.58;14.00;;;7.90;88.40;;;;;;4937422;29;20058;-83
2022/03/26 02:15:15;;;;;;;29.65;15.63;;;7.90;88.20;;;;;;4940686;28;20035;-83
2022/03/26 02:17:42;;;;;;;22.17;11.98;;;7.80;88.40;;;;;;4936025;29;20035;-84
2022/03/26 02:20:17;;;;;;;29.70;14.43;;;7.80;88.40;;;;;;4938135;28;20031;-84
2022/03/26 02:22:43;;;;;;;34.33;16.92;;;7.80;88.50;;;;;;4937155;29;20105;-84
2022/03/26 02:25:11;;;;;;;29.10;15.80;;;7.80;88.80;;;;;;4960532;28;20031;-84
2022/03/26 02:27:39;;;;;;;20.88;10.90;;;7.70;88.80;;;;;;4936438;29;20040;-84
2022/03/26 02:30:06;;;;;;;26.63;14.93;;;7.70;88.60;;;;;;4926364;28;20050;-84
2022/03/26 02:32:33;;;;;;;29.88;14.23;;;7.70;88.60;;;;;;4942437;29;20051;-83
2022/03/26 02:35:01;;;;;;;30.33;14.88;;;7.70;88.60;;;;;;4946785;28;20047;-84
2022/03/26 02:37:28;;;;;;;24.65;14.85;;;7.60;88.70;;;;;;4956017;28;20042;-84
2022/03/26 02:39:54;;;;;;;35.78;16.00;;;7.70;89.00;;;;;;4938803;28;20398;-83
2022/03/26 02:42:21;;;;;;;37.08;17.80;;;7.60;89.00;;;;;;4912953;29;20043;-83
2022/03/26 02:44:47;;;;;;;29.95;16.40;;;7.60;89.10;;;;;;4909874;29;20043;-83
2022/03/26 02:47:14;;;;;;;26.13;14.43;;;7.70;89.20;;;;;;4932479;29;20031;-83
2022/03/26 02:49:41;;;;;;;29.23;14.57;;;7.60;88.90;;;;;;4925594;28;20604;-79
2022/03/26 02:52:07;;;;;;;24.95;13.45;;;7.60;88.70;;;;;;4923899;29;20159;-78
2022/03/26 02:54:35;;;;;;;26.63;14.15;;;7.60;88.70;;;;;;4939881;28;20061;-78
2022/03/26 02:57:03;;;;;;;23.63;10.98;;;7.60;88.80;;;;;;4936277;29;20047;-78
2022/03/26 02:59:29;;;;;;;25.45;13.00;;;7.50;88.70;;;;;;4944596;28;20034;-78
2022/03/26 03:01:56;;;;;;;22.85;11.70;;;7.50;88.60;;;;;;4908557;29;20768;-79
2022/03/26 03:04:22;;;;;;;32.45;16.10;;;7.40;88.60;;;;;;4929845;29;20046;-79
2022/03/26 03:06:49;;;;;;;27.77;14.13;;;7.40;88.80;;;;;;4929125;29;20039;-78
2022/03/26 03:09:15;;;;;;;27.38;14.02;;;7.40;89.10;;;;;;4914062;28;20042;-78
2022/03/26 03:11:42;;;;;;;31.23;14.85;;;7.40;89.10;;;;;;4938996;29;20035;-79
2022/03/26 03:14:10;;;;;;;29.88;14.85;;;7.30;89.10;;;;;;4934237;28;20390;-79
2022/03/26 03:16:37;;;;;;;28.63;13.63;;;7.30;89.10;;;;;;4923468;29;20060;-79
2022/03/26 03:19:04;;;;;;;27.15;13.73;;;7.30;89.70;;;;;;4920807;29;20047;-79
2022/03/26 03:21:31;;;;;;;25.50;13.32;;;7.20;89.20;;;;;;4934653;29;20047;-79
2022/03/26 03:23:58;;;;;;;25.63;12.63;;;7.20;89.20;;;;;;4924343;29;20036;-79
2022/03/26 03:26:24;;;;;;;27.00;12.90;;;7.20;89.20;;;;;;4938154;29;20035;-79
2022/03/26 03:28:51;;;;;;;26.15;13.95;;;7.10;89.20;;;;;;4898381;28;20490;-79
2022/03/26 03:31:17;;;;;;;28.08;14.35;;;7.10;89.20;;;;;;4924720;29;20040;-78
2022/03/26 03:33:46;;;;;;;25.38;12.93;;;7.00;89.20;;;;;;4912224;29;20031;-78
2022/03/26 03:36:13;;;;;;;26.45;15.05;;;7.00;89.30;;;;;;4941638;29;20031;-78
2022/03/26 03:38:40;;;;;;;27.80;13.98;;;6.90;89.40;;;;;;4905570;29;20047;-78
2022/03/26 03:41:07;;;;;;;28.75;15.18;;;6.90;89.40;;;;;;4918037;29;20055;-78
2022/03/26 03:43:33;;;;;;;23.60;12.95;;;6.90;89.50;;;;;;4910847;29;20035;-78
2022/03/26 03:46:00;;;;;;;26.27;13.05;;;6.90;89.50;;;;;;4912014;29;20050;-78
2022/03/26 03:48:28;;;;;;;29.45;15.60;;;6.90;89.50;;;;;;4921851;29;20050;-78
2022/03/26 03:50:56;;;;;;;32.60;16.10;;;6.90;89.70;;;;;;4938343;29;20040;-78
2022/03/26 03:53:22;;;;;;;29.73;16.25;;;6.90;89.70;;;;;;4955642;28;20031;-79
2022/03/26 03:55:49;;;;;;;32.65;14.93;;;6.90;89.80;;;;;;4940445;29;20066;-84
2022/03/26 03:58:15;;;;;;;31.65;16.13;;;6.80;90.00;;;;;;4923392;29;20043;-84
2022/03/26 04:00:42;;;;;;;33.58;15.70;;;6.80;90.00;;;;;;4913679;29;20050;-83
2022/03/26 04:03:08;;;;;;;34.28;18.17;;;6.80;90.00;;;;;;4944770;28;20035;-84
2022/03/26 04:05:35;;;;;;;34.20;16.88;;;6.80;90.20;;;;;;4908354;28;21383;-79
2022/03/26 04:08:02;;;;;;;34.88;18.90;;;6.80;90.20;;;;;;4912675;29;20054;-79
2022/03/26 04:10:28;;;;;;;30.52;16.63;;;6.80;90.30;;;;;;4936050;28;20036;-79
2022/03/26 04:12:55;;;;;;;24.00;13.73;;;6.70;90.30;;;;;;4925606;29;20043;-79
2022/03/26 04:15:21;;;;;;;30.63;15.98;;;6.70;90.30;;;;;;4897559;28;20893;-84
2022/03/26 04:17:51;;;;;;;36.22;17.48;;;6.70;90.60;;;;;;4929812;29;20046;-84
2022/03/26 04:20:19;;;;;;;33.40;18.30;;;6.70;90.40;;;;;;4939816;28;20491;-84
2022/03/26 04:22:45;;;;;;;33.58;18.10;;;6.70;90.50;;;;;;4918816;29;20052;-84
2022/03/26 04:25:12;;;;;;;41.85;21.05;;;6.70;90.50;;;;;;4927525;28;20050;-79
2022/03/26 04:27:46;;;;;;;35.72;19.20;;;6.70;90.70;;;;;;4930696;29;20399;-80
2022/03/26 04:30:13;;;;;;;39.00;20.30;;;6.70;90.70;;;;;;4923626;28;20049;-79
2022/03/26 04:32:40;;;;;;;43.30;23.55;;;6.70;90.80;;;;;;4920293;29;20036;-79
2022/03/26 04:35:07;;;;;;;42.90;23.95;;;6.70;90.90;;;;;;4922125;28;20486;-80
2022/03/26 04:37:34;;;;;;;40.67;23.48;;;6.70;91.10;;;;;;4935544;29;20049;-79
2022/03/26 04:40:02;;;;;;;41.15;22.50;;;6.70;91.20;;;;;;4957809;28;20030;-79
2022/03/26 04:42:29;;;;;;;45.83;24.55;;;6.70;91.30;;;;;;4923524;29;20027;-80
2022/03/26 04:44:55;;;;;;;36.23;19.97;;;6.70;91.40;;;;;;4933379;29;20526;-79
2022/03/26 04:47:22;;;;;;;47.08;24.40;;;6.70;91.40;;;;;;4920586;29;20043;-80
2022/03/26 04:49:48;;;;;;;38.13;20.17;;;6.70;91.50;;;;;;4938593;28;20046;-80
2022/03/26 04:52:15;;;;;;;43.70;21.90;;;6.70;91.60;;;;;;4923091;29;20035;-85
2022/03/26 04:54:43;;;;;;;43.42;23.38;;;6.60;91.60;;;;;;4910162;29;20067;-84
2022/03/26 04:57:10;;;;;;;44.20;22.03;;;6.60;91.70;;;;;;4918371;29;20027;-84
2022/03/26 04:59:36;;;;;;;44.88;24.10;;;6.50;91.80;;;;;;4907865;29;20032;-84
2022/03/26 05:02:03;;;;;;;42.72;23.58;;;6.50;92.10;;;;;;4927566;29;20044;-84
2022/03/26 05:04:29;;;;;;;40.78;21.40;;;6.40;92.20;;;;;;4931813;29;20048;-79
2022/03/26 05:06:56;;;;;;;41.38;22.95;;;6.40;92.20;;;;;;4891782;29;20039;-84
2022/03/26 05:09:22;;;;;;;45.53;24.53;;;6.40;92.30;;;;;;4929337;29;20082;-84
2022/03/26 05:11:49;;;;;;;41.53;22.92;;;6.30;92.40;;;;;;4907869;29;20036;-84
2022/03/26 05:14:16;;;;;;;38.27;21.83;;;6.30;92.60;;;;;;4918790;29;20058;-84
2022/03/26 05:16:43;;;;;;;39.08;21.25;;;6.30;92.60;;;;;;4932661;29;20054;-80
2022/03/26 05:19:10;;;;;;;40.10;21.35;;;6.20;92.70;;;;;;4926566;29;20043;-79
2022/03/26 05:21:37;;;;;;;40.00;22.03;;;6.20;92.80;;;;;;4906314;29;20035;-79
2022/03/26 05:24:05;;;;;;;38.78;21.23;;;6.20;92.90;;;;;;4918697;29;20410;-79
2022/03/26 05:26:32;;;;;;;42.08;21.58;;;6.20;92.90;;;;;;4908379;29;20044;-79
2022/03/26 05:29:00;;;;;;;39.20;20.05;;;6.20;93.00;;;;;;4928946;29;20050;-79
2022/03/26 05:31:26;;;;;;;37.22;19.63;;;6.10;93.00;;;;;;4915810;29;20110;-78
2022/03/26 05:33:53;;;;;;;42.57;22.57;;;6.10;93.10;;;;;;4917310;29;20538;-79
2022/03/26 05:36:19;;;;;;;44.43;23.83;;;6.10;93.30;;;;;;4910935;29;20511;-83
2022/03/26 05:38:46;;;;;;;42.47;22.50;;;6.10;93.50;;;;;;4919933;29;20031;-78
2022/03/26 05:41:12;;;;;;;49.93;25.40;;;6.10;93.50;;;;;;4930481;29;20037;-79
2022/03/26 05:43:38;;;;;;;51.40;27.07;;;6.20;93.50;;;;;;4916700;29;20036;-78
2022/03/26 05:46:05;;;;;;;46.23;24.43;;;6.10;93.60;;;;;;4917382;29;20047;-79
2022/03/26 05:48:31;;;;;;;44.10;24.20;;;6.10;93.70;;;;;;4928623;29;20036;-79
2022/03/26 05:50:58;;;;;;;42.13;23.23;;;6.10;93.70;;;;;;4911921;29;20036;-84
2022/03/26 05:53:24;;;;;;;45.57;23.77;;;6.10;93.80;;;;;;4913091;28;20059;-83
2022/03/26 05:55:52;;;;;;;40.23;21.23;;;6.20;93.90;;;;;;4918892;29;20043;-84
2022/03/26 05:58:19;;;;;;;42.83;21.53;;;6.20;94.00;;;;;;4928709;29;20476;-84
2022/03/26 06:00:49;;;;;;;45.07;22.47;;;6.20;94.10;;;;;;4915981;29;20034;-84
2022/03/26 06:03:18;;;;;;;45.13;22.10;;;6.30;94.10;;;;;;4909518;29;20086;-84
2022/03/26 06:05:46;;;;;;;36.92;20.58;;;6.40;94.40;;;;;;4942411;29;20070;-84
2022/03/26 06:08:13;;;;;;;44.28;21.65;;;6.40;94.10;;;;;;4926830;29;20054;-83
2022/03/26 06:10:39;;;;;;;44.60;24.30;;;6.50;94.20;;;;;;4931762;29;20043;-83
2022/03/26 06:13:06;;;;;;;39.77;22.93;;;6.50;94.30;;;;;;4947298;28;20049;-83
2022/03/26 06:15:36;;;;;;;47.05;24.40;;;6.60;94.40;;;;;;4913074;29;20050;-83
2022/03/26 06:18:03;;;;;;;41.83;22.77;;;6.70;94.40;;;;;;4909382;29;20032;-83
2022/03/26 06:20:29;;;;;;;45.28;23.58;;;6.80;94.40;;;;;;4928537;29;20044;-84
2022/03/26 06:22:56;;;;;;;46.10;26.23;;;7.00;94.40;;;;;;4932012;29;20027;-83
2022/03/26 06:25:22;;;;;;;45.33;25.75;;;7.10;94.50;;;;;;4907152;29;20062;-84
2022/03/26 06:27:49;;;;;;;39.83;22.50;;;7.20;94.60;;;;;;4897053;29;20051;-84
2022/03/26 06:30:16;;;;;;;43.38;24.08;;;7.30;94.50;;;;;;4905061;28;20047;-84
2022/03/26 06:32:43;;;;;;;42.00;24.50;;;7.50;94.50;;;;;;4926138;29;20042;-83
2022/03/26 06:35:09;;;;;;;46.40;24.73;;;7.70;94.50;;;;;;4944419;29;20043;-84
2022/03/26 06:37:36;;;;;;;44.08;24.95;;;7.90;94.40;;;;;;4927552;29;20046;-84
2022/03/26 06:40:02;;;;;;;45.67;24.73;;;8.00;94.30;;;;;;4905781;29;20032;-84
2022/03/26 06:42:29;;;;;;;45.88;25.60;;;8.20;94.30;;;;;;4923551;29;20046;-84
2022/03/26 06:44:59;;;;;;;45.88;26.48;;;8.40;94.30;;;;;;4917811;29;20063;-84
2022/03/26 06:47:26;;;;;;;49.28;27.75;;;8.50;94.20;;;;;;4915889;29;20043;-79
2022/03/26 06:49:54;;;;;;;51.72;29.27;;;8.70;94.10;;;;;;4926638;28;20030;-80
2022/03/26 06:52:23;;;;;;;47.97;28.85;;;8.90;94.00;;;;;;4939632;29;20046;-80
2022/03/26 06:54:50;;;;;;;46.92;28.40;;;9.00;93.90;;;;;;4914059;29;20426;-80
2022/03/26 06:57:17;;;;;;;45.50;26.00;;;9.20;93.80;;;;;;4903489;29;20032;-80
2022/03/26 06:59:43;;;;;;;48.75;27.40;;;9.40;93.70;;;;;;4904971;29;20036;-80
2022/03/26 07:02:10;;;;;;;46.58;27.45;;;9.60;93.90;;;;;;4907115;29;20035;-80
2022/03/26 07:04:36;;;;;;;47.00;25.15;;;9.70;93.50;;;;;;4902778;29;20038;-80
2022/03/26 07:07:03;;;;;;;42.78;24.85;;;9.90;93.20;;;;;;4888668;29;20052;-80
2022/03/26 07:09:29;;;;;;;44.78;26.17;;;10.20;93.00;;;;;;4935034;29;20039;-80
2022/03/26 07:11:55;;;;;;;47.85;27.50;;;10.40;92.80;;;;;;4901105;29;20066;-80
2022/03/26 07:14:22;;;;;;;43.05;24.05;;;10.50;92.90;;;;;;4936232;29;20499;-80
2022/03/26 07:16:49;;;;;;;45.58;26.70;;;10.70;92.40;;;;;;4919150;29;20408;-80
2022/03/26 07:19:15;;;;;;;43.95;24.70;;;10.80;92.20;;;;;;4919800;29;20422;-80
2022/03/26 07:21:41;;;;;;;43.80;24.63;;;11.00;92.00;;;;;;4911807;29;20399;-80
2022/03/26 07:24:08;;;;;;;38.95;21.98;;;11.20;91.80;;;;;;4911251;29;20031;-80
2022/03/26 07:26:34;;;;;;;41.38;23.55;;;11.40;91.60;;;;;;4925484;29;20520;-80
2022/03/26 07:29:01;;;;;;;40.88;24.45;;;11.50;91.30;;;;;;4900710;29;20059;-80
2022/03/26 07:31:27;;;;;;;42.95;24.50;;;11.70;91.10;;;;;;4917654;29;20044;-79
2022/03/26 07:33:54;;;;;;;43.33;24.15;;;11.80;90.90;;;;;;4952804;28;20035;-80
2022/03/26 07:36:20;;;;;;;35.47;20.63;;;12.00;90.60;;;;;;4902950;29;20036;-80
2022/03/26 07:38:47;;;;;;;37.30;22.05;;;12.20;90.50;;;;;;4934843;29;20062;-80
2022/03/26 07:41:13;;;;;;;40.08;22.77;;;12.30;90.30;;;;;;4896420;29;20479;-80
2022/03/26 07:43:40;;;;;;;40.85;24.70;;;12.40;90.10;;;;;;4902816;29;20039;-80
2022/03/26 07:46:06;;;;;;;40.58;24.25;;;12.60;90.00;;;;;;4935603;29;20521;-80
2022/03/26 07:48:33;;;;;;;45.30;24.52;;;12.70;89.70;;;;;;4916801;29;20063;-80
2022/03/26 07:51:00;;;;;;;42.05;24.45;;;12.80;89.50;;;;;;4953684;28;20044;-80
2022/03/26 07:53:29;;;;;;;45.75;25.92;;;13.00;88.50;;;;;;4907199;29;20059;-80
2022/03/26 07:55:56;;;;;;;45.33;25.17;;;13.20;87.60;;;;;;4939278;28;20048;-78
2022/03/26 07:58:22;;;;;;;36.15;21.00;;;13.30;86.80;;;;;;4949487;29;20027;-78
2022/03/26 08:00:49;;;;;;;43.03;23.60;;;13.40;86.60;;;;;;4921565;29;20050;-78
2022/03/26 08:03:16;;;;;;;37.78;21.45;;;13.50;85.20;;;;;;4921123;29;20403;-78
2022/03/26 08:05:42;;;;;;;32.50;20.08;;;13.70;85.10;;;;;;4944576;28;20043;-78
2022/03/26 08:08:10;;;;;;;37.78;21.83;;;13.80;85.30;;;;;;4898061;29;20036;-78
2022/03/26 08:10:36;;;;;;;41.60;22.02;;;14.00;83.60;;;;;;4914734;29;20395;-78
2022/03/26 08:13:03;;;;;;;35.58;21.02;;;14.10;83.00;;;;;;4921107;29;20035;-78
2022/03/26 08:15:29;;;;;;;28.33;16.98;;;14.20;82.30;;;;;;4909620;29;20059;-78
2022/03/26 08:17:58;;;;;;;29.90;18.10;;;14.40;82.10;;;;;;4921534;29;20043;-75
2022/03/26 08:20:26;;;;;;;27.95;16.77;;;14.50;81.70;;;;;;4905471;29;20043;-76
2022/03/26 08:22:53;;;;;;;31.83;16.73;;;14.60;80.70;;;;;;4955284;28;20382;-75
2022/03/26 08:28:09;;;;;;;31.02;17.55;;;14.90;79.30;;;;;;4953631;28;20031;-75
2022/03/26 08:30:36;;;;;;;31.52;17.00;;;15.00;78.90;;;;;;4957201;28;20515;-75
2022/03/26 08:33:03;;;;;;;32.83;19.08;;;15.10;77.60;;;;;;4925978;28;20042;-76
2022/03/26 08:35:41;;;;;;;36.22;20.02;;;15.10;77.00;;;;;;4915201;29;20369;-74
2022/03/26 08:38:08;;;;;;;32.25;18.15;;;15.10;76.30;;;;;;4943395;28;20046;-74
2022/03/26 08:40:35;;;;;;;28.90;16.48;;;15.20;76.30;;;;;;4941416;29;20042;-76
2022/03/26 08:43:03;;;;;;;31.48;17.45;;;15.30;76.60;;;;;;4919875;29;20458;-75
2022/03/26 08:45:29;;;;;;;30.13;16.80;;;15.40;76.30;;;;;;4935201;29;20035;-75
2022/03/26 08:47:56;;;;;;;35.65;19.80;;;15.60;76.20;;;;;;4917937;28;20044;-75
2022/03/26 08:50:24;;;;;;;31.52;18.83;;;15.70;75.70;;;;;;4955190;28;20517;-75
2022/03/26 08:52:51;;;;;;;36.28;20.15;;;15.80;75.40;;;;;;4939110;29;20495;-75
2022/03/26 08:55:18;;;;;;;26.75;15.88;;;16.00;75.00;;;;;;4932587;29;20052;-75
2022/03/26 08:57:45;;;;;;;28.02;14.90;;;16.10;74.80;;;;;;4902876;29;20043;-75
2022/03/26 09:00:14;;;;;;;30.90;14.93;;;16.10;74.30;;;;;;4902297;29;20035;-76
2022/03/26 09:02:42;;;;;;;25.75;15.77;;;16.20;74.30;;;;;;4913487;29;20032;-75
2022/03/26 09:05:09;;;;;;;24.17;15.20;;;16.30;74.20;;;;;;4928871;29;20490;-75
2022/03/26 09:07:36;;;;;;;25.35;13.60;;;16.40;74.20;;;;;;4905858;29;20498;-75
2022/03/26 09:10:03;;;;;;;23.10;14.30;;;16.50;74.00;;;;;;4925708;29;20498;-76
2022/03/26 09:12:30;;;;;;;20.92;13.77;;;16.50;73.90;;;;;;4937272;29;20035;-77
2022/03/26 09:14:56;;;;;;;26.40;15.57;;;16.60;73.90;;;;;;4904318;29;20399;-75
2022/03/26 09:17:23;;;;;;;23.25;12.82;;;16.70;73.40;;;;;;4935350;29;20084;-77
2022/03/26 09:19:57;;;;;;;23.50;13.93;;;16.70;73.70;;;;;;4937985;29;20039;-75
2022/03/26 09:22:24;;;;;;;24.00;14.18;;;16.80;74.00;;;;;;4921001;29;20597;-75
2022/03/26 09:24:52;;;;;;;20.85;12.15;;;16.80;73.50;;;;;;4931618;29;20032;-77
2022/03/26 09:27:19;;;;;;;22.63;14.40;;;17.00;74.40;;;;;;4935307;29;20040;-75
2022/03/26 09:29:46;;;;;;;25.90;15.15;;;17.00;74.40;;;;;;4935430;29;20054;-76
2022/03/26 09:32:15;;;;;;;24.70;13.63;;;17.10;74.50;;;;;;4931571;29;20043;-75
2022/03/26 09:34:42;;;;;;;25.33;17.15;;;17.20;74.30;;;;;;4931476;29;20510;-75
2022/03/26 09:37:09;;;;;;;26.92;17.17;;;17.20;74.00;;;;;;4933039;29;20047;-76
2022/03/26 09:39:35;;;;;;;27.85;15.32;;;17.30;73.80;;;;;;4907521;29;20051;-75
2022/03/26 09:42:04;;;;;;;18.33;13.38;;;17.40;73.90;;;;;;4907762;29;20396;-77
2022/03/26 09:44:33;;;;;;;20.58;11.63;;;17.50;73.80;;;;;;4935119;29;20039;-76
2022/03/26 09:47:00;;;;;;;14.88;9.73;;;17.50;73.60;;;;;;4935384;29;20044;-76
2022/03/26 09:49:27;;;;;;;16.23;9.68;;;17.50;73.70;;;;;;4916725;29;20047;-76
2022/03/26 09:51:57;;;;;;;14.13;8.77;;;17.60;72.90;;;;;;4901233;29;20417;-76
2022/03/26 09:54:24;;;;;;;15.75;9.73;;;17.60;72.20;;;;;;4898332;29;20491;-76
2022/03/26 09:56:51;;;;;;;15.00;9.32;;;17.70;72.50;;;;;;4927023;29;20062;-77
2022/03/26 09:59:21;;;;;;;11.88;7.15;;;17.70;72.30;;;;;;4911503;29;20383;-78
2022/03/26 10:01:49;;;;;;;13.48;8.02;;;17.80;72.00;;;;;;4911440;29;20035;-79
2022/03/26 10:04:22;;;;;;;12.48;8.18;;;17.90;71.50;;;;;;4924218;29;20043;-76
2022/03/26 10:06:51;;;;;;;16.15;9.20;;;18.10;70.80;;;;;;4915119;29;20036;-76
2022/03/26 10:09:36;;;;;;;12.57;7.15;;;18.20;71.00;;;;;;4917347;29;20399;-75
2022/03/26 10:12:03;;;;;;;12.00;6.68;;;18.40;70.20;;;;;;4929195;29;20032;-74
2022/03/26 10:14:37;;;;;;;12.52;7.70;;;18.50;69.30;;;;;;4891566;29;20054;-76
2022/03/26 10:17:24;;;;;;;12.68;7.80;;;18.50;69.10;;;;;;4904018;29;20046;-75
2022/03/26 10:19:58;;;;;;;14.85;8.20;;;18.50;68.60;;;;;;4917476;29;20052;-74
2022/03/26 10:22:28;;;;;;;12.60;8.10;;;18.70;68.60;;;;;;4933263;29;20498;-76
2022/03/26 10:24:57;;;;;;;12.60;7.63;;;18.80;68.00;;;;;;4927005;29;20051;-76
2022/03/26 10:27:24;;;;;;;9.45;6.32;;;18.90;68.30;;;;;;4919540;29;20027;-77
2022/03/26 10:30:00;;;;;;;9.48;5.45;;;19.10;68.00;;;;;;4947205;29;20043;-74
2022/03/26 10:32:39;;;;;;;8.38;5.20;;;19.50;67.50;;;;;;4905259;29;20042;-80
2022/03/26 10:35:40;;;;;;;9.85;6.15;;;19.80;65.70;;;;;;4921391;29;20043;-80
2022/03/26 10:38:08;;;;;;;8.50;5.50;;;20.00;65.20;;;;;;4918382;29;20502;-81
2022/03/26 10:40:39;;;;;;;7.75;4.13;;;20.20;64.20;;;;;;4929247;29;20542;-81
2022/03/26 10:43:18;;;;;;;6.28;4.15;;;20.40;62.70;;;;;;4941688;29;20905;-85
2022/03/26 10:45:51;;;;;;;8.57;5.05;;;20.70;61.50;;;;;;4865247;29;20078;-74
2022/03/26 10:48:44;;;;;;;11.05;7.07;;;20.90;60.80;;;;;;4927523;29;20032;-73
2022/03/26 10:51:15;;;;;;;6.03;4.03;;;21.00;59.20;;;;;;4931397;29;20712;-74
2022/03/26 10:53:47;;;;;;;5.38;3.05;;;21.00;58.70;;;;;;4931114;28;20039;-74
2022/03/26 10:56:16;;;;;;;;;;;21.20;58.90;;;;;;4937671;28;20538;-76
2022/03/26 10:58:44;;;;;;;10.65;6.25;;;21.30;57.70;;;;;;4935742;29;19910;-75
2022/03/26 11:01:13;;;;;;;12.85;7.15;;;21.50;56.60;;;;;;4959104;28;20042;-75
2022/03/26 11:03:39;;;;;;;12.02;7.82;;;21.70;55.50;;;;;;4931995;29;20039;-79
2022/03/26 11:06:09;;;;;;;16.67;10.27;;;22.00;55.10;;;;;;4935222;28;20053;-81
2022/03/26 11:08:37;;;;;;;16.92;10.30;;;22.30;53.70;;;;;;4949280;29;20035;-81
2022/03/26 11:11:08;;;;;;;24.92;13.23;;;22.50;52.40;;;;;;4939532;29;20043;-79
2022/03/26 11:13:43;;;;;;;30.75;16.98;;;22.70;51.00;;;;;;4910821;29;20043;-79
2022/03/26 11:16:16;;;;;;;21.05;12.50;;;22.80;50.60;;;;;;4934255;28;20403;-80
2022/03/26 11:18:49;;;;;;;23.52;13.40;;;23.00;50.30;;;;;;4949676;29;20031;-80
2022/03/26 11:21:55;;;;;;;16.30;9.23;;;23.30;49.50;;;;;;4939851;28;20044;-80
2022/03/26 11:24:41;;;;;;;17.60;10.63;;;23.40;48.80;;;;;;4949075;28;20040;-78
2022/03/26 11:27:45;;;;;;;19.80;11.85;;;23.50;49.20;;;;;;4927349;29;20040;-78
2022/03/26 11:30:20;;;;;;;18.35;12.40;;;23.60;48.30;;;;;;4956677;28;20032;-80
2022/03/26 11:32:51;;;;;;;17.67;11.18;;;23.60;48.20;;;;;;4954446;28;20031;-78
2022/03/26 11:35:19;;;;;;;18.33;11.85;;;23.80;47.60;;;;;;4944694;28;20100;-80
2022/03/26 11:37:52;;;;;;;15.07;9.82;;;23.90;47.90;;;;;;4941463;28;20474;-82
2022/03/26 11:40:45;;;;;;;17.95;10.35;;;24.30;47.80;;;;;;4926750;29;20043;-80
2022/03/26 11:43:15;;;;;;;14.57;9.95;;;24.60;46.80;;;;;;4931115;29;20035;-78
2022/03/26 11:51:27;;;;;;;12.00;8.10;;;24.80;46.50;;;;;;4940284;28;20054;-73
2022/03/26 11:54:13;;;;;;;10.05;7.35;;;25.00;45.70;;;;;;4905810;29;20568;-76
2022/03/26 11:56:41;;;;;;;16.35;11.00;;;25.30;44.40;;;;;;4950841;29;20030;-74
2022/03/26 11:59:16;;;;;;;11.75;8.48;;;25.30;44.00;;;;;;4946251;28;20047;-74
2022/03/26 12:01:47;;;;;;;11.65;7.40;;;25.50;44.20;;;;;;4950986;28;20039;-73
2022/03/26 12:04:19;;;;;;;12.05;7.50;;;25.70;43.40;;;;;;4934997;28;20027;-75
2022/03/26 12:06:59;;;;;;;11.93;6.35;;;25.80;43.20;;;;;;4922888;29;20035;-76
2022/03/26 12:09:36;;;;;;;9.35;5.72;;;26.00;43.50;;;;;;4936356;29;20031;-75
2022/03/26 12:12:05;;;;;;;15.50;8.30;;;26.30;42.40;;;;;;4949277;28;20050;-75
2022/03/26 12:14:32;;;;;;;12.68;9.30;;;26.40;40.90;;;;;;4941343;28;20035;-79
2022/03/26 12:16:59;;;;;;;11.15;6.72;;;26.20;41.70;;;;;;4948313;28;20459;-79
2022/03/26 12:19:35;;;;;;;9.70;5.72;;;26.00;40.50;;;;;;4935176;28;20510;-79
2022/03/26 12:22:19;;;;;;;13.10;6.03;;;25.80;41.30;;;;;;4944792;29;20061;-80
2022/03/26 12:24:47;;;;;;;10.43;5.72;;;26.00;41.80;;;;;;4929344;29;20048;-79
2022/03/26 12:27:14;;;;;;;12.63;6.70;;;26.30;41.60;;;;;;4944727;28;20027;-79
2022/03/26 12:29:41;;;;;;;11.43;6.63;;;26.60;41.50;;;;;;4923166;29;20651;-81
2022/03/26 12:32:22;;;;;;;10.70;6.32;;;27.00;41.20;;;;;;4953515;28;20035;-79
2022/03/26 12:35:02;;;;;;;10.23;6.78;;;27.50;40.00;;;;;;4941937;29;20031;-80
2022/03/26 12:37:29;;;;;;;10.45;7.00;;;27.80;39.20;;;;;;4913822;29;20039;-80
2022/03/26 12:39:56;;;;;;;14.02;9.10;;;27.80;39.10;;;;;;4945819;28;20054;-79
2022/03/26 12:42:25;;;;;;;11.43;7.40;;;27.90;38.60;;;;;;4947856;28;20035;-81
2022/03/26 12:44:53;;;;;;;16.15;9.52;;;27.90;38.10;;;;;;4927371;29;20035;-79
2022/03/26 12:47:25;;;;;;;15.43;9.65;;;27.80;38.10;;;;;;4926856;29;20514;-80
2022/03/26 12:49:57;;;;;;;17.13;9.82;;;27.70;38.40;;;;;;4949078;29;20386;-75
2022/03/26 12:52:25;;;;;;;18.70;9.35;;;27.80;38.80;;;;;;4935706;28;20042;-74